Weather at Litochoro Airport [CLOSED]

Public forecast

Using degrees Celsius for public forecast. Weather courtesy of forecast.io.

Closest aviation weather report (METAR) to Litochoro Airport

Closest report is Larissa Air Base, 28.5 nm (52.8 km) S.

2024/05/24 01:50 (retrieved 32 minutes ago)

LGLR 240150Z 00000KT 9999 FEW035 16/09 Q1015 BLU

Closest aviation forecast (TAF) to Litochoro Airport

Forecast is more than 6 hours old.

Closest forecast is Kukës International Airport, 149.7 nm (277.2 km) NW.

2024/05/23 18:00 Ammendment (retrieved 8 hours ago)

TAF AMD LAKU 231900Z 2318/2418 CNL